Time;durP1;ratioP1;P1;durP2;ratioP2;P2;SDS_P1;SDS_P2;PMS_P1;PMS_P2;Temp;Humidity;BMP_temperature;BMP_pressure;BME280_temperature;BME280_humidity;BME280_pressure;Samples;Min_cycle;Max_cycle;Signal;HPM_P1;HPM_P2
2022/07/09 00:00:36;;;;;;;7.43;2.00;;;15.70;99.90;;;;;;5055043;28;20194;-86
2022/07/09 00:03:01;;;;;;;6.82;2.15;;;15.70;99.90;;;;;;5054335;28;20566;-87
2022/07/09 00:05:27;;;;;;;3.70;1.90;;;15.60;99.90;;;;;;5054567;28;20170;-86
2022/07/09 00:07:53;;;;;;;4.45;2.10;;;15.60;99.90;;;;;;5055040;28;20255;-85
2022/07/09 00:10:19;;;;;;;5.10;2.47;;;15.60;99.90;;;;;;5054953;28;20170;-86
2022/07/09 00:12:45;;;;;;;3.78;2.25;;;15.50;99.90;;;;;;5055299;28;20174;-87
2022/07/09 00:15:11;;;;;;;4.65;1.90;;;15.50;99.90;;;;;;5055241;28;20485;-86
2022/07/09 00:17:37;;;;;;;4.88;2.10;;;15.50;99.90;;;;;;5036046;28;20178;-86
2022/07/09 00:20:05;;;;;;;5.25;1.90;;;15.50;99.90;;;;;;5054879;28;20572;-86
2022/07/09 00:22:31;;;;;;;7.63;2.00;;;15.50;99.90;;;;;;5066345;28;20230;-86
2022/07/09 00:24:58;;;;;;;5.88;2.05;;;15.50;99.90;;;;;;5067634;28;20182;-86
2022/07/09 00:27:24;;;;;;;6.05;2.40;;;15.50;99.90;;;;;;5072601;28;20181;-85
2022/07/09 00:29:49;;;;;;;3.95;1.92;;;15.50;99.90;;;;;;5052524;28;20185;-84
2022/07/09 00:32:16;;;;;;;5.38;1.90;;;15.40;99.90;;;;;;5052367;28;20185;-85
2022/07/09 00:34:41;;;;;;;5.38;1.80;;;15.40;99.90;;;;;;5074112;28;20236;-84
2022/07/09 00:39:42;;;;;;;6.05;1.95;;;15.30;99.90;;;;;;5025377;22;20581;-82
2022/07/09 00:42:10;;;;;;;3.08;2.00;;;15.30;99.90;;;;;;4983961;28;20213;-83
2022/07/09 00:44:36;;;;;;;7.45;2.65;;;15.30;99.90;;;;;;4975158;28;20219;-84
2022/07/09 00:47:04;;;;;;;4.05;1.95;;;15.30;99.90;;;;;;4975450;28;20188;-83
2022/07/09 00:49:31;;;;;;;4.93;2.00;;;15.30;99.90;;;;;;4958198;28;20275;-82
2022/07/09 00:51:58;;;;;;;6.22;1.85;;;15.20;99.90;;;;;;4975618;28;20171;-83
2022/07/09 00:54:24;;;;;;;8.10;2.60;;;15.20;99.90;;;;;;4975142;28;20183;-82
2022/07/09 00:56:53;;;;;;;3.83;2.10;;;15.20;99.90;;;;;;4981097;28;20174;-84
2022/07/09 00:59:20;;;;;;;6.10;2.70;;;15.20;99.90;;;;;;4977070;28;20521;-82
2022/07/09 01:01:46;;;;;;;4.10;2.20;;;15.20;99.90;;;;;;4994839;28;20192;-83
2022/07/09 01:04:12;;;;;;;5.03;2.10;;;15.10;99.90;;;;;;4976240;28;20686;-82
2022/07/09 01:06:38;;;;;;;4.57;2.15;;;15.10;99.90;;;;;;4974910;28;20181;-82
2022/07/09 01:09:04;;;;;;;2.65;1.90;;;15.10;99.90;;;;;;4974679;28;20176;-83
2022/07/09 01:11:30;;;;;;;4.85;2.20;;;15.10;99.90;;;;;;4974946;28;20184;-83
2022/07/09 01:13:57;;;;;;;4.53;2.35;;;15.10;99.90;;;;;;4974980;28;20259;-82
2022/07/09 01:16:31;;;;;;;3.40;1.88;;;15.10;99.90;;;;;;4975118;28;20216;-83
2022/07/09 01:18:57;;;;;;;5.13;2.40;;;15.10;99.90;;;;;;4957768;28;20173;-82
2022/07/09 01:21:23;;;;;;;5.88;2.42;;;15.10;99.90;;;;;;4974820;28;20260;-83
2022/07/09 01:23:49;;;;;;;7.10;2.65;;;15.20;99.90;;;;;;4973271;28;20184;-82
2022/07/09 01:26:16;;;;;;;8.02;2.40;;;15.20;99.90;;;;;;4976467;28;20187;-83
2022/07/09 01:28:42;;;;;;;4.40;1.98;;;15.20;99.90;;;;;;4994339;28;20263;-82
2022/07/09 01:31:07;;;;;;;8.38;2.58;;;15.10;99.90;;;;;;4994300;28;20172;-82
2022/07/09 01:33:33;;;;;;;9.48;2.40;;;15.20;99.90;;;;;;4994401;28;20176;-83
2022/07/09 01:35:59;;;;;;;6.88;2.53;;;15.20;99.90;;;;;;4988447;28;20185;-82
2022/07/09 01:38:25;;;;;;;7.15;2.47;;;15.10;99.90;;;;;;4974303;28;20223;-82
2022/07/09 01:40:51;;;;;;;9.20;2.50;;;15.20;99.90;;;;;;4974237;28;20188;-82
2022/07/09 01:43:17;;;;;;;7.47;2.50;;;15.20;99.90;;;;;;4952528;29;20295;-83
2022/07/09 01:45:42;;;;;;;9.55;2.50;;;15.20;99.90;;;;;;4967259;28;20191;-83
2022/07/09 01:48:08;;;;;;;8.55;2.15;;;15.20;99.90;;;;;;4974853;28;20177;-83
2022/07/09 01:50:34;;;;;;;7.03;2.38;;;15.20;99.90;;;;;;4974765;28;20212;-81
2022/07/09 01:53:00;;;;;;;6.85;2.20;;;15.20;99.90;;;;;;4974405;28;20161;-82
2022/07/09 01:55:25;;;;;;;8.57;2.38;;;15.20;99.90;;;;;;4974657;28;20192;-83
2022/07/09 01:57:51;;;;;;;6.97;2.53;;;15.20;99.90;;;;;;4989299;28;20645;-82
2022/07/09 02:00:18;;;;;;;11.77;2.63;;;15.20;99.90;;;;;;4993436;28;20175;-83
2022/07/09 02:02:44;;;;;;;7.10;2.30;;;15.20;99.90;;;;;;4973219;28;20216;-83
2022/07/09 02:05:10;;;;;;;10.50;3.08;;;15.10;99.90;;;;;;4956900;28;20184;-83
2022/07/09 02:07:36;;;;;;;8.80;2.58;;;15.20;99.90;;;;;;4974572;28;20189;-83
2022/07/09 02:10:03;;;;;;;8.60;2.70;;;15.20;99.90;;;;;;4973804;28;20264;-82
2022/07/09 02:12:29;;;;;;;8.63;2.33;;;15.20;99.90;;;;;;4974573;28;20235;-85
2022/07/09 02:14:55;;;;;;;7.05;2.00;;;15.20;99.90;;;;;;4973220;28;20188;-84
2022/07/09 02:17:21;;;;;;;10.07;2.78;;;15.20;99.90;;;;;;4974771;28;20207;-82
2022/07/09 02:19:46;;;;;;;6.50;2.05;;;15.20;99.90;;;;;;4973197;28;20172;-83
2022/07/09 02:22:12;;;;;;;8.00;2.78;;;15.20;99.90;;;;;;4973056;28;20279;-84
2022/07/09 02:24:38;;;;;;;8.20;2.58;;;15.20;99.90;;;;;;4972302;28;20197;-82
2022/07/09 02:27:04;;;;;;;8.65;2.85;;;15.20;99.90;;;;;;4985958;28;20701;-82
2022/07/09 02:29:29;;;;;;;9.45;2.67;;;15.20;99.90;;;;;;4997325;28;20519;-82
2022/07/09 02:31:57;;;;;;;8.95;2.97;;;15.20;99.90;;;;;;4980217;28;20274;-82
2022/07/09 02:34:23;;;;;;;7.35;2.25;;;15.10;99.90;;;;;;4997797;28;20156;-82
2022/07/09 02:36:49;;;;;;;8.00;2.28;;;15.10;99.90;;;;;;4989583;28;20204;-83
2022/07/09 02:39:15;;;;;;;8.95;2.75;;;15.00;99.90;;;;;;4986363;28;20260;-82
2022/07/09 02:41:41;;;;;;;8.57;3.00;;;15.00;99.90;;;;;;4974341;28;20184;-83
2022/07/09 02:44:06;;;;;;;8.63;2.70;;;15.00;99.90;;;;;;4977919;28;20631;-83
2022/07/09 02:46:32;;;;;;;7.60;3.08;;;15.00;99.90;;;;;;4977862;28;20181;-82
2022/07/09 02:48:58;;;;;;;10.55;2.95;;;15.00;99.90;;;;;;4977898;28;20187;-81
2022/07/09 02:51:23;;;;;;;7.40;2.80;;;15.00;99.90;;;;;;4960478;28;20544;-83
2022/07/09 02:53:49;;;;;;;7.85;3.50;;;15.00;99.90;;;;;;4960203;28;20187;-82
2022/07/09 02:56:15;;;;;;;7.20;2.85;;;14.90;99.90;;;;;;4979391;28;20223;-82
2022/07/09 02:58:40;;;;;;;5.38;2.50;;;15.00;99.90;;;;;;4995829;28;20192;-82
2022/07/09 03:01:06;;;;;;;7.82;3.45;;;15.00;99.90;;;;;;4979533;28;20176;-81
2022/07/09 03:03:35;;;;;;;6.85;2.92;;;15.00;99.90;;;;;;4979711;28;20243;-82
2022/07/09 03:06:02;;;;;;;7.95;2.92;;;15.10;99.90;;;;;;4996768;28;20177;-82
2022/07/09 03:08:28;;;;;;;6.97;2.75;;;15.10;99.90;;;;;;4996641;28;20183;-82
2022/07/09 03:10:54;;;;;;;6.30;2.58;;;15.10;99.90;;;;;;4988046;28;20182;-82
2022/07/09 03:13:19;;;;;;;12.07;2.95;;;15.10;99.90;;;;;;4966602;28;20895;-82
2022/07/09 03:15:45;;;;;;;8.45;2.75;;;15.10;99.90;;;;;;4967308;28;20627;-82
2022/07/09 03:18:11;;;;;;;6.95;2.47;;;15.20;99.90;;;;;;4977220;28;20608;-83
2022/07/09 03:20:37;;;;;;;6.85;3.45;;;15.20;99.90;;;;;;4977019;28;20204;-82
2022/07/09 03:23:06;;;;;;;4.47;2.83;;;15.20;99.90;;;;;;4959480;28;20219;-81
2022/07/09 03:25:32;;;;;;;6.95;3.08;;;15.20;99.90;;;;;;4959885;28;20188;-83
2022/07/09 03:27:58;;;;;;;12.48;3.10;;;15.10;99.90;;;;;;4959867;28;20645;-83
2022/07/09 03:30:23;;;;;;;13.38;3.67;;;15.10;99.90;;;;;;4993606;28;20219;-83
2022/07/09 03:32:50;;;;;;;9.52;3.17;;;15.20;99.90;;;;;;4996410;28;20180;-82
2022/07/09 03:35:16;;;;;;;7.50;2.80;;;15.20;99.90;;;;;;4996150;28;20167;-82
2022/07/09 03:37:42;;;;;;;9.18;2.90;;;15.20;99.90;;;;;;4978905;28;20176;-83
2022/07/09 03:40:09;;;;;;;11.65;3.58;;;15.10;99.90;;;;;;4995783;28;20190;-82
2022/07/09 03:42:35;;;;;;;7.97;2.90;;;15.20;99.90;;;;;;4978741;28;20254;-82
2022/07/09 03:45:01;;;;;;;5.03;2.65;;;15.10;99.90;;;;;;4996203;28;20168;-83
2022/07/09 03:47:27;;;;;;;8.60;2.72;;;15.20;99.90;;;;;;4996079;28;20182;-83
2022/07/09 03:49:52;;;;;;;8.40;3.08;;;15.20;99.90;;;;;;4996024;28;20172;-82
2022/07/09 03:52:19;;;;;;;7.22;2.63;;;15.20;99.90;;;;;;4978788;28;20184;-83
2022/07/09 03:54:44;;;;;;;7.25;2.75;;;15.20;99.90;;;;;;4995739;28;20168;-82
2022/07/09 03:57:11;;;;;;;9.52;3.03;;;15.20;99.90;;;;;;4996187;28;20198;-83
2022/07/09 03:59:36;;;;;;;6.72;2.85;;;15.20;99.90;;;;;;4978457;28;20188;-84
2022/07/09 04:02:04;;;;;;;9.10;2.67;;;15.20;99.90;;;;;;4978459;28;20259;-82
2022/07/09 04:04:29;;;;;;;7.43;2.67;;;15.20;99.90;;;;;;4993848;28;20214;-83
2022/07/09 04:06:55;;;;;;;6.35;2.60;;;15.20;99.90;;;;;;4976575;28;20215;-83
2022/07/09 04:09:21;;;;;;;8.75;3.00;;;15.30;99.90;;;;;;4976270;28;20180;-83
2022/07/09 04:11:47;;;;;;;9.27;3.03;;;15.30;99.90;;;;;;4976504;28;20181;-83
2022/07/09 04:14:14;;;;;;;7.35;2.33;;;15.30;99.90;;;;;;4976612;28;20192;-83
2022/07/09 04:16:40;;;;;;;8.82;3.05;;;15.30;99.90;;;;;;4976203;28;20183;-83
2022/07/09 04:19:06;;;;;;;6.28;2.97;;;15.30;99.90;;;;;;4958783;28;20173;-83
2022/07/09 04:21:32;;;;;;;6.32;3.03;;;15.30;99.90;;;;;;4975065;28;20227;-82
2022/07/09 04:23:57;;;;;;;6.60;2.70;;;15.30;99.90;;;;;;4974436;28;20529;-82
2022/07/09 04:26:23;;;;;;;11.68;3.22;;;15.30;99.90;;;;;;4975843;28;20267;-83
2022/07/09 04:28:49;;;;;;;11.57;3.40;;;15.30;99.90;;;;;;4979801;28;20184;-83
2022/07/09 04:31:15;;;;;;;6.93;2.55;;;15.30;99.90;;;;;;4995423;28;20176;-82
2022/07/09 04:33:43;;;;;;;5.78;2.60;;;15.30;99.90;;;;;;4977910;28;20256;-83
2022/07/09 04:36:09;;;;;;;11.45;2.90;;;15.30;99.90;;;;;;4995372;28;20250;-83
2022/07/09 04:38:34;;;;;;;8.80;2.75;;;15.30;99.90;;;;;;4977401;28;20310;-83
2022/07/09 04:41:00;;;;;;;8.10;2.80;;;15.30;99.90;;;;;;4977750;28;20275;-83
2022/07/09 04:43:26;;;;;;;10.20;3.08;;;15.40;99.90;;;;;;4944729;28;20213;-83
2022/07/09 04:45:51;;;;;;;8.68;3.00;;;15.40;99.90;;;;;;4955972;29;20173;-82
2022/07/09 04:48:17;;;;;;;6.72;3.20;;;15.50;99.90;;;;;;4950620;28;20188;-82
2022/07/09 04:50:43;;;;;;;7.63;2.70;;;15.50;99.90;;;;;;4975605;28;20177;-82
2022/07/09 04:53:09;;;;;;;7.60;2.97;;;15.50;99.90;;;;;;4974449;28;20173;-82
2022/07/09 04:55:34;;;;;;;8.77;2.60;;;15.60;99.90;;;;;;4975220;28;20173;-82
2022/07/09 04:58:00;;;;;;;8.98;2.75;;;15.60;99.90;;;;;;4975301;28;20173;-83
2022/07/09 05:00:26;;;;;;;8.02;2.90;;;15.70;99.90;;;;;;4991128;28;20645;-82
2022/07/09 05:02:51;;;;;;;7.20;2.63;;;15.70;99.90;;;;;;4994543;28;20295;-83
2022/07/09 05:05:21;;;;;;;6.28;2.50;;;15.70;99.90;;;;;;4994769;28;20518;-82
2022/07/09 05:07:47;;;;;;;5.55;2.55;;;15.70;99.90;;;;;;4965493;28;20177;-82
2022/07/09 05:10:13;;;;;;;10.30;3.28;;;15.80;99.90;;;;;;4975171;28;20179;-83
2022/07/09 05:12:40;;;;;;;10.82;2.92;;;15.80;99.90;;;;;;4975516;28;20181;-83
2022/07/09 05:15:06;;;;;;;6.25;3.08;;;15.80;99.90;;;;;;4975016;28;20167;-82
2022/07/09 05:17:36;;;;;;;7.03;2.58;;;15.90;99.90;;;;;;4973904;28;20271;-83
2022/07/09 05:20:06;;;;;;;7.25;2.80;;;15.90;99.90;;;;;;4975092;28;20675;-84
2022/07/09 05:22:34;;;;;;;6.30;3.35;;;16.00;99.90;;;;;;4973809;28;20247;-83
2022/07/09 05:25:00;;;;;;;8.40;2.88;;;16.00;99.90;;;;;;4974912;28;20172;-83
2022/07/09 05:27:27;;;;;;;13.77;2.90;;;16.00;99.90;;;;;;4957821;28;20519;-82
2022/07/09 05:29:54;;;;;;;12.40;2.55;;;16.10;99.90;;;;;;4962752;28;20268;-83
2022/07/09 05:32:19;;;;;;;7.45;2.65;;;16.10;99.90;;;;;;4955870;29;20177;-83
2022/07/09 05:34:45;;;;;;;15.20;2.45;;;16.20;99.90;;;;;;4955463;29;20180;-83
2022/07/09 05:37:11;;;;;;;10.02;3.13;;;16.30;99.90;;;;;;4938583;29;20178;-83
2022/07/09 05:39:36;;;;;;;6.60;2.90;;;16.40;99.90;;;;;;4955236;29;20689;-83
2022/07/09 05:42:02;;;;;;;4.63;2.55;;;16.50;99.90;;;;;;4955536;29;20688;-84
2022/07/09 05:44:28;;;;;;;6.63;2.40;;;16.60;99.90;;;;;;4955284;28;20177;-82
2022/07/09 05:46:54;;;;;;;5.95;3.08;;;16.80;99.90;;;;;;4938597;29;20209;-83
2022/07/09 05:49:20;;;;;;;5.05;2.20;;;16.80;99.90;;;;;;4945021;28;20192;-83
2022/07/09 05:51:45;;;;;;;9.25;2.60;;;16.70;99.90;;;;;;4966135;28;20207;-81
2022/07/09 05:54:11;;;;;;;5.75;2.55;;;16.60;99.90;;;;;;4955861;28;20624;-83
2022/07/09 05:56:37;;;;;;;5.55;2.28;;;16.60;99.90;;;;;;4955497;29;20659;-83
2022/07/09 05:59:03;;;;;;;9.57;2.60;;;16.60;99.90;;;;;;4981933;28;20523;-82
2022/07/09 06:01:29;;;;;;;9.82;2.88;;;16.70;99.90;;;;;;4998085;28;20171;-83
2022/07/09 06:03:56;;;;;;;11.00;3.30;;;16.70;99.90;;;;;;4980383;28;20247;-84
2022/07/09 06:06:22;;;;;;;7.05;3.00;;;16.70;99.90;;;;;;4980290;28;20180;-83
2022/07/09 06:08:48;;;;;;;7.50;3.05;;;16.70;99.90;;;;;;4959156;29;20512;-82
2022/07/09 06:11:14;;;;;;;6.38;2.42;;;16.80;99.90;;;;;;4974839;28;20552;-82
2022/07/09 06:13:39;;;;;;;10.50;2.80;;;16.80;99.90;;;;;;4976764;28;20196;-83
2022/07/09 06:16:06;;;;;;;8.10;2.50;;;16.80;99.90;;;;;;4978500;28;20199;-84
2022/07/09 06:18:31;;;;;;;10.48;2.70;;;16.80;99.90;;;;;;4978523;28;20173;-84
2022/07/09 06:20:57;;;;;;;7.82;2.65;;;16.90;99.90;;;;;;4978311;28;20646;-83
2022/07/09 06:23:23;;;;;;;4.65;2.47;;;17.00;99.90;;;;;;4978268;28;20208;-83
2022/07/09 06:25:49;;;;;;;8.27;3.40;;;17.00;99.90;;;;;;4977633;28;20184;-82
2022/07/09 06:28:15;;;;;;;14.90;3.45;;;17.10;99.90;;;;;;4978017;28;20191;-82
2022/07/09 06:30:40;;;;;;;5.57;3.05;;;17.20;99.90;;;;;;4981618;28;20631;-83
2022/07/09 06:33:06;;;;;;;6.82;3.08;;;17.30;99.90;;;;;;4978045;28;20195;-81
2022/07/09 06:35:32;;;;;;;5.95;2.80;;;17.40;99.90;;;;;;4978004;28;20638;-83
2022/07/09 06:37:58;;;;;;;7.22;3.28;;;17.30;99.90;;;;;;4978124;28;20216;-82
2022/07/09 06:40:23;;;;;;;7.35;2.97;;;17.30;99.90;;;;;;4976360;28;20841;-82
2022/07/09 06:42:49;;;;;;;7.32;2.70;;;17.30;99.90;;;;;;4976445;28;20246;-83
2022/07/09 06:45:15;;;;;;;8.30;2.28;;;17.40;99.90;;;;;;4978023;28;20516;-81
2022/07/09 06:47:41;;;;;;;6.53;2.47;;;17.40;99.90;;;;;;4978171;28;20668;-81
2022/07/09 06:50:07;;;;;;;6.63;2.80;;;17.60;99.90;;;;;;4977984;28;20505;-82
2022/07/09 06:52:32;;;;;;;6.22;2.55;;;17.70;99.90;;;;;;4977915;28;20180;-83
2022/07/09 06:54:58;;;;;;;4.03;2.13;;;17.80;99.90;;;;;;4975456;28;20183;-82
2022/07/09 06:57:24;;;;;;;7.20;2.33;;;17.90;99.90;;;;;;4959677;28;20857;-83
2022/07/09 06:59:49;;;;;;;7.25;2.47;;;17.90;99.90;;;;;;4981011;28;20192;-83
2022/07/09 07:02:18;;;;;;;7.07;2.00;;;17.90;99.90;;;;;;4977811;28;20239;-82
2022/07/09 07:04:44;;;;;;;7.60;2.20;;;17.90;99.90;;;;;;4977577;28;20177;-82
2022/07/09 07:07:09;;;;;;;5.25;1.95;;;17.80;99.90;;;;;;4976518;28;20223;-83
2022/07/09 07:09:35;;;;;;;3.03;1.80;;;17.90;99.90;;;;;;4976777;28;20628;-82
2022/07/09 07:12:01;;;;;;;7.90;2.00;;;17.90;99.90;;;;;;4979392;28;20195;-82
2022/07/09 07:14:27;;;;;;;4.30;1.65;;;18.10;99.90;;;;;;4987845;28;20192;-81
2022/07/09 07:16:55;;;;;;;4.65;1.90;;;18.20;99.90;;;;;;4981433;28;20184;-82
2022/07/09 07:19:21;;;;;;;3.20;1.88;;;18.50;99.90;;;;;;4963549;28;20192;-82
2022/07/09 07:21:47;;;;;;;4.47;1.70;;;18.50;99.90;;;;;;4976151;28;20339;-83
2022/07/09 07:24:13;;;;;;;4.07;1.70;;;18.70;99.90;;;;;;4955427;28;20646;-84
2022/07/09 07:26:39;;;;;;;3.05;1.40;;;18.90;99.90;;;;;;4987474;28;20536;-82
2022/07/09 07:29:05;;;;;;;5.78;1.65;;;19.10;99.90;;;;;;4990494;28;20645;-83
2022/07/09 07:31:31;;;;;;;4.03;1.52;;;19.10;99.90;;;;;;4975928;28;20185;-82
2022/07/09 07:33:57;;;;;;;3.35;1.40;;;19.40;99.90;;;;;;4989286;28;20196;-82
2022/07/09 07:36:23;;;;;;;2.78;1.30;;;19.40;99.90;;;;;;4989732;28;20196;-83
2022/07/09 07:38:48;;;;;;;8.30;2.17;;;19.40;99.90;;;;;;4976168;28;20220;-82
2022/07/09 07:41:16;;;;;;;2.90;1.30;;;19.30;99.90;;;;;;4974983;28;20229;-82
2022/07/09 07:43:42;;;;;;;3.95;1.15;;;19.30;99.90;;;;;;4985809;28;20212;-83
2022/07/09 07:46:08;;;;;;;4.72;1.60;;;19.40;99.90;;;;;;4960884;28;20185;-81
2022/07/09 07:48:35;;;;;;;2.83;1.10;;;19.50;99.90;;;;;;4991001;28;20187;-81
2022/07/09 07:51:02;;;;;;;3.13;1.23;;;19.50;99.90;;;;;;4973225;28;20192;-81
2022/07/09 07:53:30;;;;;;;3.50;1.30;;;19.50;99.90;;;;;;4995836;28;20160;-82
2022/07/09 07:55:56;;;;;;;3.08;1.10;;;19.40;99.90;;;;;;4977943;28;20207;-82
2022/07/09 07:58:21;;;;;;;1.90;0.98;;;19.40;99.90;;;;;;4996032;28;20588;-83
2022/07/09 08:00:47;;;;;;;3.03;1.10;;;19.30;99.90;;;;;;4975104;28;20196;-81
2022/07/09 08:03:13;;;;;;;3.45;1.20;;;19.10;99.90;;;;;;4976420;28;20212;-82
2022/07/09 08:05:38;;;;;;;3.78;1.33;;;19.10;99.90;;;;;;4976250;28;20268;-81
2022/07/09 08:08:04;;;;;;;1.48;0.98;;;19.10;99.90;;;;;;4958876;28;20247;-82
2022/07/09 08:10:30;;;;;;;4.43;1.33;;;19.10;99.90;;;;;;4958226;28;20246;-82
2022/07/09 08:12:55;;;;;;;3.72;1.25;;;19.00;99.90;;;;;;4959210;28;20180;-83
2022/07/09 08:15:21;;;;;;;3.72;1.13;;;18.90;99.90;;;;;;4975431;28;20623;-85
2022/07/09 08:17:47;;;;;;;1.98;1.30;;;18.80;99.90;;;;;;4976295;28;20173;-82
2022/07/09 08:20:12;;;;;;;4.00;1.23;;;18.70;99.90;;;;;;4971621;28;20187;-82
2022/07/09 08:22:38;;;;;;;1.45;1.17;;;18.60;99.90;;;;;;4992763;28;20219;-85
2022/07/09 08:25:05;;;;;;;2.88;1.50;;;18.60;99.90;;;;;;4980979;28;20321;-82
2022/07/09 08:27:30;;;;;;;4.47;1.48;;;18.60;99.90;;;;;;4969225;28;20191;-82
2022/07/09 08:29:56;;;;;;;3.03;1.35;;;18.60;99.90;;;;;;4944903;28;20268;-82
2022/07/09 08:32:22;;;;;;;3.67;1.55;;;18.50;99.90;;;;;;4959555;28;20239;-82
2022/07/09 08:34:47;;;;;;;2.78;1.30;;;18.40;99.90;;;;;;4975069;28;20184;-82
2022/07/09 08:37:13;;;;;;;2.58;1.38;;;18.30;99.90;;;;;;4974798;28;20711;-82
2022/07/09 08:39:39;;;;;;;5.03;1.65;;;18.20;99.90;;;;;;4980446;28;20240;-83
2022/07/09 08:42:12;;;;;;;2.63;1.40;;;18.20;99.90;;;;;;4959108;28;20215;-81
2022/07/09 08:44:42;;;;;;;3.53;1.50;;;18.30;99.90;;;;;;4974988;28;20173;-83
2022/07/09 08:47:11;;;;;;;2.78;1.20;;;18.30;99.90;;;;;;4957885;28;20200;-82
2022/07/09 08:49:38;;;;;;;3.05;1.27;;;18.40;99.90;;;;;;4975708;28;20165;-82
2022/07/09 08:52:06;;;;;;;2.78;1.52;;;18.60;99.90;;;;;;4974240;28;20547;-82
2022/07/09 08:54:36;;;;;;;3.55;1.40;;;18.60;99.90;;;;;;4957998;28;20181;-83
2022/07/09 08:57:02;;;;;;;2.70;1.45;;;18.70;99.90;;;;;;4975640;28;20180;-83
2022/07/09 08:59:28;;;;;;;2.20;1.25;;;18.80;99.90;;;;;;4984125;28;20514;-82
2022/07/09 09:01:53;;;;;;;2.35;1.17;;;18.90;99.90;;;;;;4984662;28;20263;-82
2022/07/09 09:04:19;;;;;;;2.80;1.20;;;19.00;99.90;;;;;;4975250;28;20188;-83
2022/07/09 09:06:45;;;;;;;2.53;1.27;;;19.10;99.90;;;;;;4974962;28;20569;-83
2022/07/09 09:09:18;;;;;;;2.25;1.55;;;19.20;99.90;;;;;;4975213;28;20592;-82
2022/07/09 09:11:50;;;;;;;3.90;1.23;;;19.20;99.90;;;;;;4957973;28;20172;-85
2022/07/09 09:14:22;;;;;;;2.22;1.40;;;19.20;99.90;;;;;;4958135;28;20267;-83
2022/07/09 09:16:48;;;;;;;2.53;1.35;;;19.10;99.90;;;;;;4974563;28;20252;-85
2022/07/09 09:19:14;;;;;;;1.42;1.20;;;19.00;99.90;;;;;;4974968;28;20172;-83
2022/07/09 09:21:40;;;;;;;4.45;1.20;;;18.90;99.90;;;;;;4975199;28;20627;-83
2022/07/09 09:24:06;;;;;;;2.58;1.02;;;18.90;99.90;;;;;;4957878;28;20200;-82
2022/07/09 09:26:35;;;;;;;2.50;1.20;;;18.90;99.90;;;;;;4974683;28;20188;-83
2022/07/09 09:29:02;;;;;;;2.30;1.27;;;18.90;99.90;;;;;;4980102;28;20187;-83
2022/07/09 09:31:31;;;;;;;1.08;1.00;;;19.00;99.90;;;;;;4976884;28;20175;-83
2022/07/09 09:34:09;;;;;;;1.85;1.13;;;19.20;99.90;;;;;;4993809;28;20674;-83
2022/07/09 09:36:39;;;;;;;6.15;1.30;;;19.30;99.90;;;;;;4955671;29;20188;-82
2022/07/09 09:39:27;;;;;;;2.55;1.45;;;19.40;99.90;;;;;;4954248;29;20263;-83
2022/07/09 09:41:58;;;;;;;3.72;1.55;;;19.50;99.90;;;;;;4955589;29;20172;-83
2022/07/09 09:44:39;;;;;;;2.28;1.30;;;19.70;99.90;;;;;;4964574;28;20212;-83
2022/07/09 09:47:07;;;;;;;2.10;1.30;;;20.10;99.90;;;;;;4957640;28;20168;-83
2022/07/09 09:49:34;;;;;;;2.70;1.40;;;20.20;99.90;;;;;;4969499;28;20207;-83
2022/07/09 09:52:05;;;;;;;1.90;1.10;;;20.40;99.90;;;;;;4955950;28;20473;-83
2022/07/09 09:54:32;;;;;;;1.38;1.10;;;20.50;99.90;;;;;;4955301;28;20189;-82
2022/07/09 09:56:59;;;;;;;1.70;1.40;;;20.70;99.90;;;;;;4973599;28;20259;-82
2022/07/09 09:59:25;;;;;;;2.10;1.23;;;20.80;99.90;;;;;;4975661;28;20212;-82
2022/07/09 10:01:51;;;;;;;2.42;1.23;;;20.90;99.90;;;;;;4974017;28;20535;-82
2022/07/09 10:04:18;;;;;;;2.78;1.40;;;21.00;99.90;;;;;;4957287;28;20192;-83
2022/07/09 10:06:44;;;;;;;2.60;1.25;;;20.90;99.90;;;;;;4957227;28;20181;-83
2022/07/09 10:09:15;;;;;;;1.98;1.00;;;20.90;99.90;;;;;;4957252;28;20181;-83
2022/07/09 10:11:41;;;;;;;2.65;1.30;;;20.60;99.90;;;;;;4973775;28;20216;-83
2022/07/09 10:14:07;;;;;;;1.67;1.17;;;20.30;99.90;;;;;;4974634;28;20176;-84
2022/07/09 10:16:39;;;;;;;2.15;1.15;;;20.00;99.90;;;;;;4973803;28;20232;-85
2022/07/09 10:19:05;;;;;;;2.42;1.10;;;19.90;99.90;;;;;;4974640;28;20497;-83
2022/07/09 10:21:41;;;;;;;2.35;1.30;;;20.00;99.90;;;;;;4974279;28;20623;-82
2022/07/09 10:24:11;;;;;;;3.53;1.20;;;20.00;99.90;;;;;;4974639;28;20185;-83
2022/07/09 10:26:49;;;;;;;3.58;1.40;;;20.20;99.90;;;;;;4966901;28;20177;-83
2022/07/09 10:29:34;;;;;;;1.83;1.10;;;20.40;99.90;;;;;;4968973;28;20571;-83
2022/07/09 10:32:01;;;;;;;2.65;1.38;;;20.50;99.90;;;;;;4993135;28;20168;-83
2022/07/09 10:34:27;;;;;;;1.75;1.00;;;20.40;99.90;;;;;;4974480;28;20176;-83
2022/07/09 10:36:57;;;;;;;2.75;1.30;;;20.30;99.90;;;;;;4973193;28;20177;-83
2022/07/09 10:39:23;;;;;;;3.85;1.33;;;20.30;99.90;;;;;;4972765;28;20562;-85
2022/07/09 10:42:02;;;;;;;4.18;1.40;;;20.30;99.90;;;;;;4972574;28;20231;-83
2022/07/09 10:44:39;;;;;;;2.45;1.10;;;20.30;99.90;;;;;;4956999;28;20184;-84
2022/07/09 10:47:06;;;;;;;2.80;1.20;;;20.20;99.90;;;;;;4960632;28;20635;-82
2022/07/09 10:49:35;;;;;;;3.58;1.27;;;20.50;99.90;;;;;;4978013;28;20180;-83
2022/07/09 10:52:01;;;;;;;3.42;1.10;;;20.80;99.90;;;;;;4960707;28;20658;-83
2022/07/09 10:54:26;;;;;;;1.85;1.10;;;21.20;99.90;;;;;;4977425;28;20184;-83
2022/07/09 10:56:54;;;;;;;2.60;1.25;;;21.40;99.90;;;;;;4977313;28;20173;-83
2022/07/09 10:59:20;;;;;;;3.15;1.35;;;21.40;99.90;;;;;;4967471;28;20180;-84
2022/07/09 11:01:46;;;;;;;3.28;1.15;;;21.30;99.90;;;;;;4996899;28;20263;-84
2022/07/09 11:04:14;;;;;;;4.57;1.50;;;21.00;99.90;;;;;;4997137;28;20274;-84
2022/07/09 11:06:49;;;;;;;1.95;1.30;;;21.00;99.90;;;;;;4968205;28;20191;-86
2022/07/09 11:09:16;;;;;;;3.03;1.25;;;21.10;99.90;;;;;;4959268;28;20247;-85
2022/07/09 11:11:43;;;;;;;1.45;0.90;;;21.20;99.90;;;;;;4959465;28;20177;-84
2022/07/09 11:14:11;;;;;;;1.60;0.98;;;21.30;99.90;;;;;;4960061;28;20177;-85
2022/07/09 11:16:38;;;;;;;1.77;1.10;;;21.80;99.70;;;;;;4960059;28;20204;-84
2022/07/09 11:19:21;;;;;;;2.65;1.10;;;22.00;99.30;;;;;;4959956;28;20581;-84
2022/07/09 11:21:47;;;;;;;3.15;1.00;;;22.10;98.20;;;;;;4959171;28;20634;-84
2022/07/09 11:24:19;;;;;;;1.42;0.82;;;22.00;98.70;;;;;;4977122;28;20184;-84
2022/07/09 11:26:46;;;;;;;3.47;0.95;;;21.90;98.40;;;;;;4959637;28;20257;-83
2022/07/09 11:29:12;;;;;;;2.20;1.10;;;21.80;97.50;;;;;;4983769;28;20611;-83
2022/07/09 11:31:47;;;;;;;4.32;0.80;;;21.80;98.40;;;;;;4996510;28;20187;-84
2022/07/09 11:34:14;;;;;;;2.67;0.90;;;21.80;98.70;;;;;;4979187;28;20171;-83
2022/07/09 11:36:46;;;;;;;1.92;0.80;;;21.90;97.30;;;;;;4974196;28;20498;-82
2022/07/09 11:39:50;;;;;;;1.55;1.00;;;21.80;97.00;;;;;;4944857;28;20228;-85
2022/07/09 11:42:20;;;;;;;2.53;1.10;;;21.70;98.10;;;;;;4965976;28;20219;-83
2022/07/09 11:44:59;;;;;;;2.80;1.00;;;21.70;99.90;;;;;;4972847;28;20184;-83
2022/07/09 11:47:33;;;;;;;1.15;0.90;;;21.80;99.20;;;;;;4969078;28;20279;-83
2022/07/09 11:50:13;;;;;;;2.15;0.82;;;22.00;96.60;;;;;;4966013;28;20173;-83
2022/07/09 11:52:49;;;;;;;4.25;1.00;;;22.10;97.70;;;;;;4970607;28;20185;-82
2022/07/09 11:55:27;;;;;;;1.30;0.98;;;22.30;98.20;;;;;;4965095;28;20185;-82
2022/07/09 11:58:05;;;;;;;1.80;1.08;;;22.50;98.10;;;;;;4942708;29;20263;-85
2022/07/09 12:00:33;;;;;;;2.38;1.20;;;22.80;98.10;;;;;;4973467;28;20223;-82
2022/07/09 12:03:00;;;;;;;1.45;0.80;;;23.00;97.10;;;;;;4978022;28;20710;-83
2022/07/09 12:05:35;;;;;;;2.55;0.95;;;23.00;96.90;;;;;;4995642;28;20187;-83
2022/07/09 12:08:07;;;;;;;1.67;1.00;;;23.30;95.30;;;;;;4995822;28;20159;-84
2022/07/09 12:10:35;;;;;;;2.67;0.82;;;23.60;96.50;;;;;;4986172;28;20185;-84
2022/07/09 12:13:02;;;;;;;3.25;0.95;;;23.70;94.60;;;;;;4958469;28;20183;-84
2022/07/09 12:15:29;;;;;;;2.33;1.10;;;23.70;94.30;;;;;;4975719;28;20188;-83
2022/07/09 12:17:56;;;;;;;1.65;0.90;;;23.40;94.40;;;;;;4975547;28;20191;-84
2022/07/09 12:20:24;;;;;;;2.35;1.05;;;23.50;95.40;;;;;;4973633;28;20634;-85
2022/07/09 12:22:50;;;;;;;2.60;0.88;;;23.70;92.80;;;;;;4983109;28;20315;-85
2022/07/09 12:25:17;;;;;;;2.85;0.90;;;23.80;93.10;;;;;;4957079;28;20215;-84
2022/07/09 12:27:43;;;;;;;0.93;0.80;;;23.70;92.50;;;;;;4975366;28;20189;-83
2022/07/09 12:30:09;;;;;;;1.02;0.70;;;23.60;92.70;;;;;;4978156;28;20194;-86
2022/07/09 12:32:35;;;;;;;1.90;0.82;;;23.80;93.50;;;;;;4995500;28;20307;-85
2022/07/09 12:35:01;;;;;;;3.42;0.75;;;24.00;93.30;;;;;;4977898;28;20278;-85
2022/07/09 12:37:27;;;;;;;3.60;1.00;;;24.00;93.40;;;;;;4995547;28;20543;-85
2022/07/09 12:39:53;;;;;;;1.10;0.70;;;23.60;93.20;;;;;;4977734;28;20303;-85
2022/07/09 12:42:20;;;;;;;1.05;0.73;;;23.20;94.00;;;;;;4995061;28;20286;-85
2022/07/09 12:44:46;;;;;;;2.10;0.73;;;22.80;94.00;;;;;;4977651;28;20183;-85
2022/07/09 12:47:12;;;;;;;1.40;0.90;;;22.40;95.40;;;;;;4961641;28;20190;-83